createdAt,value
2023-02-27T00:03:33.984Z,99495.88
2023-02-27T00:06:21.204Z,99496.19
2023-02-27T00:09:08.540Z,99508.91
2023-02-27T00:11:56.271Z,99508.41
2023-02-27T00:14:43.326Z,99502.06
2023-02-27T00:17:30.693Z,99510.25
2023-02-27T00:20:19.327Z,99505.13
2023-02-27T00:23:08.623Z,99494.22
2023-02-27T00:25:55.803Z,99511.34
2023-02-27T00:28:42.916Z,99511.56
2023-02-27T00:31:30.583Z,99520.91
2023-02-27T00:34:17.877Z,99523.47
2023-02-27T00:37:04.976Z,99525.00
2023-02-27T00:39:52.158Z,99516.69
2023-02-27T00:42:39.282Z,99532.53
2023-02-27T00:45:26.343Z,99524.00
2023-02-27T00:48:13.419Z,99543.25
2023-02-27T00:51:00.517Z,99553.91
2023-02-27T00:53:47.595Z,99541.63
2023-02-27T00:56:35.010Z,99550.03
2023-02-27T00:59:22.091Z,99545.81
2023-02-27T01:02:09.231Z,99543.97
2023-02-27T01:04:56.301Z,99554.31
2023-02-27T01:07:43.434Z,99552.97
2023-02-27T01:10:30.928Z,99544.81
2023-02-27T01:13:18.048Z,99538.06
2023-02-27T01:16:05.517Z,99538.97
2023-02-27T01:18:52.906Z,99551.88
2023-02-27T01:21:42.195Z,99552.19
2023-02-27T01:24:29.295Z,99548.63
2023-02-27T01:27:16.351Z,99550.25
2023-02-27T01:30:04.628Z,99559.81
2023-02-27T01:32:51.688Z,99534.69
2023-02-27T01:35:39.768Z,99560.75
2023-02-27T01:38:26.951Z,99542.84
2023-02-27T01:41:14.330Z,99562.22
2023-02-27T01:44:02.575Z,99555.53
2023-02-27T01:46:49.621Z,99554.53
2023-02-27T01:49:36.792Z,99557.31
2023-02-27T01:52:23.955Z,99554.13
2023-02-27T01:55:13.512Z,99547.50
2023-02-27T01:58:01.079Z,99551.75
2023-02-27T02:00:49.175Z,99558.41
2023-02-27T02:03:42.920Z,99564.31
2023-02-27T02:06:31.765Z,99557.63
2023-02-27T02:09:20.374Z,99548.50
2023-02-27T02:12:08.488Z,99560.19
2023-02-27T02:14:55.654Z,99557.84
2023-02-27T02:17:57.739Z,99548.19
2023-02-27T02:20:56.367Z,99558.53
2023-02-27T02:24:16.017Z,99570.81
2023-02-27T02:27:21.386Z,99567.22
2023-02-27T02:30:33.366Z,99558.03
2023-02-27T02:33:52.942Z,99578.78
2023-02-27T02:36:51.936Z,99564.09
2023-02-27T02:39:38.986Z,99570.00
2023-02-27T02:42:43.700Z,99563.88
2023-02-27T02:45:52.355Z,99557.44
2023-02-27T02:48:53.040Z,99570.50
2023-02-27T02:51:56.169Z,99563.72
2023-02-27T02:55:01.712Z,99556.31
2023-02-27T02:57:56.271Z,99582.41
2023-02-27T03:00:49.588Z,99581.56
2023-02-27T03:03:45.613Z,99565.78
2023-02-27T03:06:37.861Z,99584.84
2023-02-27T03:09:32.564Z,99586.13
2023-02-27T03:12:23.418Z,99596.91
2023-02-27T03:15:21.065Z,99593.09
2023-02-27T03:18:22.591Z,99595.13
2023-02-27T03:21:18.765Z,99597.78
2023-02-27T03:24:10.019Z,99598.06
2023-02-27T03:27:03.162Z,99588.03
2023-02-27T03:29:58.182Z,99602.28
2023-02-27T03:33:06.556Z,99599.94
2023-02-27T03:36:04.731Z,99595.94
2023-02-27T03:39:00.438Z,99598.53
2023-02-27T03:41:54.434Z,99611.72
2023-02-27T03:44:54.902Z,99618.09
2023-02-27T03:47:42.276Z,99617.31
2023-02-27T03:50:30.719Z,99613.03
2023-02-27T03:54:09.936Z,99613.03
2023-02-27T03:57:05.570Z,99629.56
2023-02-27T03:59:53.501Z,99626.09
2023-02-27T04:02:41.944Z,99619.94
2023-02-27T04:05:29.642Z,99617.13
2023-02-27T04:08:25.920Z,99629.19
2023-02-27T04:11:33.294Z,99632.22
2023-02-27T04:14:49.558Z,99629.78
2023-02-27T04:18:04.358Z,99615.19
2023-02-27T04:20:58.632Z,99630.75
2023-02-27T04:24:21.540Z,99630.09
2023-02-27T04:27:20.945Z,99632.44
2023-02-27T04:30:32.621Z,99631.66
2023-02-27T04:33:28.837Z,99629.06
2023-02-27T04:36:27.058Z,99618.97
2023-02-27T04:39:28.900Z,99642.63
2023-02-27T04:42:19.522Z,99634.38
2023-02-27T04:45:12.725Z,99620.59
2023-02-27T04:48:07.414Z,99649.28
2023-02-27T04:50:59.889Z,99638.28
2023-02-27T04:53:52.932Z,99640.09
2023-02-27T04:56:57.240Z,99637.41
2023-02-27T04:59:49.202Z,99641.88
2023-02-27T05:02:41.192Z,99636.25
2023-02-27T05:05:32.420Z,99637.84
2023-02-27T05:08:56.019Z,99650.88
2023-02-27T05:12:04.168Z,99659.03
2023-02-27T05:15:05.737Z,99643.91
2023-02-27T05:17:59.354Z,99658.19
2023-02-27T05:21:15.330Z,99659.41
2023-02-27T05:24:17.288Z,99668.84
2023-02-27T05:27:22.543Z,99673.63
2023-02-27T05:30:27.230Z,99661.69
2023-02-27T05:33:25.137Z,99674.88
2023-02-27T05:36:19.557Z,99662.28
2023-02-27T05:39:10.524Z,99671.97
2023-02-27T05:42:14.637Z,99684.34
2023-02-27T05:45:20.281Z,99674.09
2023-02-27T05:48:30.382Z,99687.88
2023-02-27T05:51:21.148Z,99683.59
2023-02-27T05:54:30.341Z,99685.88
2023-02-27T05:57:25.284Z,99679.06
2023-02-27T06:00:37.765Z,99695.25
2023-02-27T06:03:27.344Z,99684.03
2023-02-27T06:06:20.290Z,99693.13
2023-02-27T06:09:51.842Z,99703.41
2023-02-27T06:12:53.869Z,99643.06
2023-02-27T06:15:44.122Z,99678.31
2023-02-27T06:19:58.318Z,99674.81
2023-02-27T06:22:52.771Z,99716.56
2023-02-27T06:27:11.066Z,99668.50
2023-02-27T06:53:43.073Z,99668.31
2023-02-27T06:57:23.945Z,99707.22
2023-02-27T07:00:21.145Z,99712.44
2023-02-27T07:03:12.487Z,99726.47
2023-02-27T07:28:39.411Z,99710.06
2023-02-27T07:40:28.339Z,99773.66
2023-02-27T07:43:18.723Z,99738.81
2023-02-27T07:46:08.341Z,99733.44
2023-02-27T07:49:03.189Z,99718.06
2023-02-27T07:51:35.724Z,99795.84
2023-02-27T07:54:22.658Z,99787.94
2023-02-27T07:56:59.821Z,99769.84
2023-02-27T08:10:06.216Z,99746.53
2023-02-27T08:12:53.470Z,99802.50
2023-02-27T08:15:40.575Z,99777.84
2023-02-27T08:18:27.665Z,99787.56
2023-02-27T08:21:14.933Z,99793.97
2023-02-27T08:24:02.265Z,99769.78
2023-02-27T08:26:49.379Z,99796.53
2023-02-27T08:29:36.535Z,99792.09
2023-02-27T08:32:23.752Z,99815.25
2023-02-27T08:35:10.986Z,99818.53
2023-02-27T08:37:58.079Z,99821.91
2023-02-27T08:40:45.497Z,99807.13
2023-02-27T08:43:33.009Z,99805.47
2023-02-27T08:46:20.486Z,99820.91
2023-02-27T08:49:07.655Z,99829.16
2023-02-27T08:51:54.766Z,99830.38
2023-02-27T08:54:41.941Z,99820.88
2023-02-27T08:57:29.019Z,99823.53
2023-02-27T09:00:16.780Z,99832.19
2023-02-27T09:03:04.219Z,99816.66
2023-02-27T09:05:51.351Z,99822.19
2023-02-27T09:08:38.787Z,99834.13
2023-02-27T09:11:26.924Z,99839.50
2023-02-27T09:14:14.162Z,99835.19
2023-02-27T09:17:01.336Z,99835.59
2023-02-27T09:19:48.963Z,99835.75
2023-02-27T09:22:36.210Z,99844.69
2023-02-27T09:25:24.293Z,99842.09
2023-02-27T09:28:11.457Z,99841.78
2023-02-27T09:31:03.283Z,99826.16
2023-02-27T09:33:50.333Z,99834.25
2023-02-27T09:36:37.419Z,99833.06
2023-02-27T09:39:24.533Z,99831.69
2023-02-27T09:42:28.770Z,99831.50
2023-02-27T09:45:25.087Z,99847.06
2023-02-27T09:48:26.795Z,99843.16
2023-02-27T09:51:16.740Z,99838.28
2023-02-27T09:54:05.118Z,99813.97
2023-02-27T09:57:01.107Z,99839.97
2023-02-27T09:59:56.970Z,99828.50
2023-02-27T10:03:01.836Z,99849.47
2023-02-27T10:06:06.213Z,99864.19
2023-02-27T10:09:15.764Z,99866.22
2023-02-27T10:12:21.423Z,99861.56
2023-02-27T10:15:47.358Z,99855.25
2023-02-27T10:19:00.313Z,99866.22
2023-02-27T10:21:51.862Z,99851.00
2023-02-27T10:24:48.202Z,99826.03
2023-02-27T10:27:35.317Z,99860.69
2023-02-27T10:30:29.840Z,99859.50
2023-02-27T10:33:38.668Z,99863.16
2023-02-27T10:36:33.588Z,99865.69
2023-02-27T10:39:23.078Z,99869.34
2023-02-27T10:42:12.572Z,99871.47
2023-02-27T10:44:59.676Z,99863.56
2023-02-27T10:47:46.853Z,99864.72
2023-02-27T10:50:37.103Z,99831.31
2023-02-27T10:53:25.484Z,99867.22
2023-02-27T10:56:26.951Z,99850.22
2023-02-27T10:59:25.518Z,99854.09
2023-02-27T11:02:39.200Z,99860.00
2023-02-27T11:05:32.420Z,99856.72
2023-02-27T11:08:25.470Z,99841.19
2023-02-27T11:11:12.629Z,99837.59
2023-02-27T11:14:25.163Z,99823.72
2023-02-27T11:17:28.961Z,99824.28
2023-02-27T11:20:40.019Z,99826.56
2023-02-27T11:23:27.102Z,99814.22
2023-02-27T11:26:19.984Z,99818.97
2023-02-27T11:29:19.146Z,99828.25
2023-02-27T11:32:14.824Z,99814.69
2023-02-27T11:35:02.276Z,99820.34
2023-02-27T11:37:51.974Z,99776.66
2023-02-27T11:40:50.401Z,99812.69
2023-02-27T11:43:51.231Z,99818.69
2023-02-27T11:46:47.022Z,99812.94
2023-02-27T11:49:45.229Z,99812.16
2023-02-27T11:52:44.853Z,99810.50
2023-02-27T11:55:32.529Z,99806.72
2023-02-27T11:58:23.102Z,99816.84
2023-02-27T12:01:21.048Z,99804.31
2023-02-27T12:04:28.226Z,99803.75
2023-02-27T12:07:17.846Z,99803.34
2023-02-27T12:10:07.824Z,99796.53
2023-02-27T12:12:57.877Z,99796.34
2023-02-27T12:15:48.029Z,99802.44
2023-02-27T12:18:40.426Z,99803.19
2023-02-27T12:21:39.323Z,99790.50
2023-02-27T12:24:33.554Z,99801.56
2023-02-27T12:27:51.010Z,99797.47
2023-02-27T12:31:19.713Z,99795.59
2023-02-27T12:34:27.354Z,99797.91
2023-02-27T12:37:24.274Z,99804.69
2023-02-27T12:40:18.347Z,99809.50
2023-02-27T12:43:30.240Z,99782.97
2023-02-27T12:46:29.526Z,99785.66
2023-02-27T12:49:37.118Z,99800.03
2023-02-27T12:52:39.436Z,99781.81
2023-02-27T12:55:29.969Z,99796.16
2023-02-27T12:58:40.404Z,99798.81
2023-02-27T13:01:56.409Z,99796.00
2023-02-27T13:04:52.099Z,99763.81
2023-02-27T13:07:57.806Z,99796.38
2023-02-27T13:11:17.458Z,99797.00
2023-02-27T13:14:26.146Z,99775.56
2023-02-27T13:17:34.574Z,99781.09
2023-02-27T13:20:21.604Z,99804.06
2023-02-27T13:23:22.281Z,99797.44
2023-02-27T13:26:19.524Z,99746.28
2023-02-27T13:29:08.119Z,99777.38
2023-02-27T13:32:44.138Z,99777.41
2023-02-27T13:36:07.965Z,99757.66
2023-02-27T13:38:58.263Z,99784.22
2023-02-27T13:41:45.270Z,99788.56
2023-02-27T13:44:41.330Z,99775.50
2023-02-27T13:47:31.281Z,99784.84
2023-02-27T13:50:18.338Z,99786.84
2023-02-27T13:53:11.102Z,99754.81
2023-02-27T13:56:22.037Z,99786.31
2023-02-27T13:59:17.829Z,99786.91
2023-02-27T14:02:10.947Z,99786.16
2023-02-27T14:05:03.217Z,99761.03
2023-02-27T14:08:05.792Z,99790.44
2023-02-27T14:11:18.869Z,99785.47
2023-02-27T14:14:08.631Z,99760.84
2023-02-27T14:16:57.892Z,99765.03
2023-02-27T14:19:49.464Z,99790.09
2023-02-27T14:22:44.269Z,99761.44
2023-02-27T14:25:39.499Z,99777.78
2023-02-27T14:28:36.225Z,99793.06
2023-02-27T14:31:32.832Z,99780.53
2023-02-27T14:34:22.392Z,99787.97
2023-02-27T14:37:23.647Z,99801.16
2023-02-27T14:40:29.942Z,99792.91
2023-02-27T14:43:35.762Z,99777.09
2023-02-27T14:46:31.460Z,99807.13
2023-02-27T14:49:26.149Z,99768.00
2023-02-27T14:52:22.842Z,99780.56
2023-02-27T14:55:18.333Z,99785.75
2023-02-27T14:58:19.353Z,99817.56
2023-02-27T15:01:10.013Z,99823.28
2023-02-27T15:03:58.881Z,99786.44
2023-02-27T15:06:54.845Z,99797.84
2023-02-27T15:09:44.961Z,99831.47
2023-02-27T15:12:37.521Z,99833.00
2023-02-27T15:15:27.936Z,99844.47
2023-02-27T15:18:15.446Z,99790.63
2023-02-27T15:21:02.674Z,99805.50
2023-02-27T15:24:22.563Z,99845.59
2023-02-27T15:27:15.054Z,99801.84
2023-02-27T15:30:04.322Z,99805.00
2023-02-27T15:32:52.997Z,99845.94
2023-02-27T15:35:44.488Z,99848.16
2023-02-27T15:38:38.173Z,99834.03
2023-02-27T15:41:25.619Z,99855.06
2023-02-27T15:44:14.843Z,99852.03
2023-02-27T15:47:02.615Z,99854.13
2023-02-27T15:49:53.878Z,99821.13
2023-02-27T15:52:44.398Z,99824.84
2023-02-27T15:55:36.090Z,99845.09
2023-02-27T15:58:26.543Z,99853.44
2023-02-27T16:01:26.886Z,99835.94
2023-02-27T16:04:26.118Z,99853.34
2023-02-27T16:07:17.756Z,99881.84
2023-02-27T16:10:15.627Z,99877.41
2023-02-27T16:13:25.693Z,99854.47
2023-02-27T16:16:22.171Z,99888.72
2023-02-27T16:19:27.027Z,99872.22
2023-02-27T16:22:21.673Z,99859.81
2023-02-27T16:25:11.189Z,99898.94
2023-02-27T16:27:58.396Z,99892.31
2023-02-27T16:30:46.068Z,99906.97
2023-02-27T16:33:37.019Z,99888.09
2023-02-27T16:36:27.631Z,99886.25
2023-02-27T16:39:15.374Z,99882.19
2023-02-27T16:42:11.046Z,99879.38
2023-02-27T16:45:00.824Z,99886.56
2023-02-27T16:47:57.038Z,99914.03
2023-02-27T16:50:48.537Z,99914.59
2023-02-27T16:53:44.255Z,99910.16
2023-02-27T16:56:38.181Z,99886.94
2023-02-27T16:59:27.348Z,99923.00
2023-02-27T17:02:16.313Z,99935.00
2023-02-27T17:05:07.325Z,99930.78
2023-02-27T17:07:55.014Z,99916.84
2023-02-27T17:10:42.981Z,99924.75
2023-02-27T17:13:32.860Z,99939.84
2023-02-27T17:16:23.275Z,99930.59
2023-02-27T17:19:12.027Z,99925.72
2023-02-27T17:21:59.611Z,99928.72
2023-02-27T17:24:46.716Z,99940.38
2023-02-27T17:27:34.577Z,99943.03
2023-02-27T17:30:24.546Z,99950.56
2023-02-27T17:33:11.750Z,99944.56
2023-02-27T17:36:08.806Z,99930.16
2023-02-27T17:39:03.428Z,99952.63
2023-02-27T17:41:53.107Z,99942.28
2023-02-27T17:44:44.643Z,99954.97
2023-02-27T17:47:34.038Z,99946.78
2023-02-27T17:50:22.160Z,99976.41
2023-02-27T17:53:11.916Z,99982.56
2023-02-27T17:55:59.580Z,99973.53
2023-02-27T17:58:50.575Z,99973.69
2023-02-27T18:01:38.515Z,99972.69
2023-02-27T18:04:28.144Z,99981.56
2023-02-27T18:07:16.161Z,99978.97
2023-02-27T18:10:05.956Z,99994.06
2023-02-27T18:12:53.922Z,99967.78
2023-02-27T18:15:42.831Z,99972.16
2023-02-27T18:18:38.466Z,99991.31
2023-02-27T18:21:27.776Z,99995.38
2023-02-27T18:24:18.560Z,99991.59
2023-02-27T18:27:07.014Z,99964.44
2023-02-27T18:29:55.496Z,99997.03
2023-02-27T18:32:44.204Z,99976.38
2023-02-27T18:35:31.522Z,99998.69
2023-02-27T18:38:19.377Z,99993.03
2023-02-27T18:41:09.838Z,99990.25
2023-02-27T18:43:59.382Z,99998.34
2023-02-27T18:46:46.985Z,99991.81
2023-02-27T18:49:34.765Z,99999.59
2023-02-27T18:52:26.208Z,100010.28
2023-02-27T18:55:16.392Z,99991.47
2023-02-27T18:58:06.052Z,100013.34
2023-02-27T19:00:59.523Z,100017.56
2023-02-27T19:03:47.893Z,100018.72
2023-02-27T19:06:42.675Z,100011.91
2023-02-27T19:09:33.280Z,100028.38
2023-02-27T19:12:22.960Z,100027.63
2023-02-27T19:15:12.664Z,100022.41
2023-02-27T19:18:00.405Z,100016.50
2023-02-27T19:20:48.716Z,100036.09
2023-02-27T19:23:37.318Z,100014.41
2023-02-27T19:26:26.289Z,100040.31
2023-02-27T19:29:14.863Z,100028.44
2023-02-27T19:32:08.977Z,100031.66
2023-02-27T19:34:56.985Z,100035.72
2023-02-27T19:37:48.628Z,100043.38
2023-02-27T19:40:37.170Z,100035.31
2023-02-27T19:43:25.521Z,100010.66
2023-02-27T19:46:18.172Z,100047.88
2023-02-27T19:49:11.228Z,100033.53
2023-02-27T19:51:59.499Z,100032.00
2023-02-27T19:54:47.784Z,100030.34
2023-02-27T19:57:37.484Z,100041.88
2023-02-27T20:00:25.566Z,100038.59
2023-02-27T20:03:13.614Z,100044.97
2023-02-27T20:06:03.535Z,100035.72
2023-02-27T20:08:53.251Z,100043.84
2023-02-27T20:11:43.067Z,100039.47
2023-02-27T20:14:33.005Z,100041.34
2023-02-27T20:17:23.851Z,100053.56
2023-02-27T20:20:13.448Z,100048.06
2023-02-27T20:23:03.553Z,100043.81
2023-02-27T20:25:54.529Z,100048.72
2023-02-27T20:28:44.917Z,100046.44
2023-02-27T20:31:36.883Z,100050.59
2023-02-27T20:34:27.433Z,100023.81
2023-02-27T20:37:15.158Z,100028.91
2023-02-27T20:40:06.011Z,100039.47
2023-02-27T20:42:54.246Z,100050.91
2023-02-27T20:45:42.363Z,100042.84
2023-02-27T20:48:29.911Z,100041.59
2023-02-27T20:51:26.722Z,100049.47
2023-02-27T20:54:21.977Z,100035.53
2023-02-27T20:57:12.348Z,100042.41
2023-02-27T21:00:01.297Z,100037.69
2023-02-27T21:02:48.783Z,100039.47
2023-02-27T21:05:39.107Z,100037.06
2023-02-27T21:08:27.725Z,100034.31
2023-02-27T21:11:19.233Z,100051.63
2023-02-27T21:14:09.428Z,100053.81
2023-02-27T21:16:57.250Z,100046.09
2023-02-27T21:19:44.688Z,100055.34
2023-02-27T21:22:35.717Z,100063.22
2023-02-27T21:25:26.493Z,100064.47
2023-02-27T21:28:14.993Z,100057.00
2023-02-27T21:31:06.794Z,100056.19
2023-02-27T21:33:54.962Z,100030.41
2023-02-27T21:36:47.414Z,100062.13
2023-02-27T21:39:35.034Z,100052.59
2023-02-27T21:42:22.862Z,100053.41
2023-02-27T21:45:13.122Z,100061.72
2023-02-27T21:48:00.417Z,100060.28
2023-02-27T21:50:49.041Z,100060.53
2023-02-27T21:53:37.137Z,100062.13
2023-02-27T21:56:24.701Z,100052.69
2023-02-27T21:59:12.662Z,100056.69
2023-02-27T22:01:59.915Z,100044.09
2023-02-27T22:04:50.162Z,100026.66
2023-02-27T22:07:37.585Z,100050.69
2023-02-27T22:10:24.726Z,100046.94
2023-02-27T22:13:14.549Z,100017.06
2023-02-27T22:16:13.178Z,100045.22
2023-02-27T22:19:04.398Z,100034.28
2023-02-27T22:21:51.725Z,100056.69
2023-02-27T22:24:42.864Z,100053.47
2023-02-27T22:27:29.971Z,100028.63
2023-02-27T22:30:19.679Z,100042.22
2023-02-27T22:33:06.763Z,100050.16
2023-02-27T22:35:53.831Z,100043.75
2023-02-27T22:38:41.419Z,100049.81
2023-02-27T22:41:31.657Z,100057.31
2023-02-27T22:44:20.284Z,100052.16
2023-02-27T22:47:09.947Z,100042.50
2023-02-27T22:49:57.136Z,100032.25
2023-02-27T22:52:44.167Z,100035.88
2023-02-27T22:55:31.310Z,100044.56
2023-02-27T22:58:21.859Z,100048.97
2023-02-27T23:01:15.264Z,100029.31
2023-02-27T23:04:13.034Z,100048.97
2023-02-27T23:07:00.216Z,100044.00
2023-02-27T23:09:49.659Z,100017.97
2023-02-27T23:12:39.990Z,100042.97
2023-02-27T23:15:27.047Z,100031.00
2023-02-27T23:18:14.127Z,100039.16
2023-02-27T23:21:04.040Z,100027.56
2023-02-27T23:23:53.987Z,100034.09
2023-02-27T23:26:46.565Z,100048.81
2023-02-27T23:29:35.732Z,100045.31
2023-02-27T23:32:22.966Z,100023.19
2023-02-27T23:35:12.427Z,100031.72
2023-02-27T23:38:00.740Z,100040.44
2023-02-27T23:40:47.905Z,100039.63
2023-02-27T23:43:38.156Z,100030.97
2023-02-27T23:46:29.096Z,100044.44
2023-02-27T23:49:16.223Z,100031.16
2023-02-27T23:52:03.437Z,100039.56
2023-02-27T23:54:50.501Z,100032.63
2023-02-27T23:57:42.125Z,100042.41
